Weather observations for the past three days for
Napa, Napa County Airport
Imperial (Metric)
Date Time (pdt) Wind (mph) Vis. (mi.) Weather Sky Cond. Temperature (ºF) Relative Humidity Wind Chill (°F) Heat Index (°F) Pressure Precipitation (in)
Air Dwpt 6 hour altimeter (in) sea level (mb) 1 hr 3 hr 6 hr
Max. Min.
03 14:54 SW 15 10.00 Partly Cloudy SCT038 64.9 51.1 61% 29.9 1011.7
03 13:54 SW 13 G 18 10.00 Mostly Cloudy SCT030 BKN037 64 51.1 63% 29.9 1011.6
03 12:54 SW 12 10.00 Overcast BKN032 OVC037 64.9 51.1 61% 29.91 1011.9
03 11:54 SW 9 10.00 Mostly Cloudy BKN036 61 48.9 65% 29.92 1012.2
03 10:54 W 9 10.00 Overcast BKN026 OVC034 60.1 48.9 60.1 54 67% 29.92 1012.1
03 09:54 W 10 10.00 Mostly Cloudy BKN026 59 48.9 69% 29.91 1011.9
03 08:54 W 7 10.00 Overcast OVC025 55 50 83% 29.91 1012.0
03 07:54 W 8 10.00 Overcast OVC023 55 48.9 80% 29.89 1011.4
03 06:54 W 7 10.00 Overcast OVC022 54 48.9 83% 29.87 1010.6
03 05:54 W 8 10.00 Overcast OVC022 54 48.9 83% 29.85 1009.9
03 04:54 W 9 10.00 Overcast OVC021 54 48.9 54 52 83% 29.85 1009.9
03 03:54 W 7 10.00 Overcast OVC019 54 48.9 83% 29.85 1010.0
03 02:54 W 7 10.00 Overcast OVC020 54 48.9 83% 29.85 1010.0
03 01:54 W 6 10.00 Overcast OVC018 54 48.9 83% 29.87 1010.5
03 00:54 SW 7 10.00 Overcast OVC019 53.1 48.9 86% 29.88 1010.8
02 23:54 W 8 10.00 A Few Clouds FEW019 52 48.9 89% 29.88 1010.8
02 22:54 W 7 10.00 Mostly Cloudy BKN018 52 48.9 64 52 89% 29.89 1011.3
02 21:54 W 9 10.00 Fair CLR 53.1 48.9 86% 29.89 1011.2
02 20:54 W 12 10.00 Fair CLR 54 48.9 83% 29.88 1010.8
02 19:54 W 15 10.00 A Few Clouds FEW024 54 48.9 83% 29.86 1010.1
02 18:54 W 10 10.00 Fair CLR 57 50 78% 29.86 1010.1
02 17:54 W 14 10.00 Fair CLR 60.1 50 70% 29.86 1010.2
02 16:54 S 13 10.00 Mostly Cloudy BKN024 63 52 63 57 68% 29.86 1010.4
02 15:54 S 16 10.00 Overcast OVC022 62.1 53.1 73% 29.88 1011.1
02 14:54 S 16 10.00 Overcast OVC023 62.1 53.1 73% 29.9 1011.8
02 13:54 S 15 10.00 Overcast OVC017 61 52 72% 29.92 1012.2
02 12:54 S 12 10.00 Overcast OVC018 61 52 72% 29.93 1012.6
02 11:54 S 10 10.00 Overcast OVC015 60.1 52 75% 29.94 1012.8
02 10:54 SW 12 10.00 Overcast OVC012 57 51.1 57 54 81% 29.94 1012.8
02 09:54 S 12 10.00 Overcast OVC009 55.9 52 87% 29.93 1012.7
02 08:54 W 3 10.00 Overcast OVC009 55 51.1 87% 29.93 1012.5
02 07:54 W 7 10.00 Overcast BKN009 OVC012 54 51.1 90% 29.91 1012.1
02 06:54 W 6 6.00 Fog/Mist OVC009 54 51.1 90% 29.9 1011.5
02 05:54 SW 10 G 18 10.00 Overcast OVC010 54 51.1 90% 29.89 1011.2
02 04:54 SW 12 10.00 Overcast OVC010 54 51.1 55 53.1 90% 29.89 1011.2
02 03:54 S 9 10.00 Overcast OVC010 54 51.1 90% 29.89 1011.4
02 02:54 SW 8 10.00 Overcast OVC010 54 51.1 90% 29.9 1011.6
02 01:54 Calm 10.00 Overcast OVC010 55 52 90% 29.91 1012.1
02 00:54 SW 7 10.00 Overcast OVC009 55 52 90% 29.92 1012.2
01 23:54 W 7 10.00 Overcast OVC010 55 52 90% 29.92 1012.3
01 22:54 SW 8 10.00 A Few Clouds FEW013 53.1 51.1 64.9 53.1 93% 29.92 1012.3
01 21:54 S 9 10.00 Partly Cloudy SCT008 55.9 54 93% 29.92 1012.2
01 20:54 S 9 10.00 Fair CLR 55.9 54 93% 29.9 1011.7
01 19:54 S 13 10.00 Fair CLR 57.9 54 87% 29.89 1011.2
01 18:54 S 12 10.00 Fair CLR 61 55 81% 29.88 1011.0
01 17:54 S 13 10.00 Fair CLR 63 55 76% 29.88 1011.1
01 16:54 SW 12 10.00 Fair CLR 64 55 66 57 73% 29.89 1011.3
01 15:54 SW 15 10.00 Fair CLR 66 55.9 70% 29.91 1011.8
01 14:54 S 10 10.00 Fair CLR 64.9 55 70% 29.94 1012.8
01 13:54 SW 8 10.00 Fair CLR 63 55 76% 29.95 1013.4
01 12:54 SW 9 10.00 Fair CLR 61 54 78% 29.97 1013.9
01 11:54 SW 8 10.00 Mostly Cloudy BKN013 60.1 53.1 78% 29.99 1014.7
01 10:54 SW 12 10.00 Overcast OVC009 57.9 52 57.9 48.9 81% 29.99 1014.8
01 09:54 SW 7 10.00 Overcast OVC009 55.9 52 87% 29.99 1014.7
01 08:54 SW 6 10.00 Overcast OVC009 55.9 52 87% 29.98 1014.4
01 07:54 NW 3 9.00 Overcast OVC007 54 52 93% 29.97 1014.1
01 06:54 N 3 8.00 Overcast OVC009 52 50 93% 29.96 1013.6
01 05:54 NW 3 8.00 Overcast OVC010 50 48.9 96% 29.94 1012.9
01 04:54 W 6 9.00 Overcast OVC010 51.1 50 54 50 96% 29.94 1012.9
01 03:54 Calm 10.00 Overcast OVC011 53.1 51.1 93% 29.93 1012.7
01 02:54 NW 3 10.00 Overcast OVC010 53.1 51.1 93% 29.93 1012.7
01 01:54 W 5 10.00 Overcast OVC012 52 50 93% 29.95 1013.1
01 00:54 Calm 10.00 Overcast OVC011 53.1 51.1 93% 29.95 1013.4
30 23:54 SW 5 10.00 Fair CLR 51.1 50 96% 29.95 1013.1
30 22:54 SW 6 10.00 Fair CLR 53.1 50 69.1 52 89% 29.94 1013.0
30 21:54 SW 8 10.00 Fair CLR 54 51.1 90% 29.94 1012.9
30 20:54 W 9 10.00 Fair CLR 55 51.1 87% 29.92 1012.4
30 19:54 SW 8 10.00 Fair CLR 57.9 52 81% 29.91 1011.9
30 18:54 W 9 10.00 Fair CLR 64.9 54 68% 29.9 1011.5
30 17:54 S 14 10.00 Fair CLR 66.9 55.9 68% 29.9 1011.5
30 16:54 S 13 10.00 Fair CLR 69.1 55 69.1 61 61% 29.9 1011.5
30 15:54 SW 13 10.00 Fair CLR 69.1 54 59% 29.91 1011.9
Date Time (pdt) Wind (mph) Vis. (mi.) Weather Sky Cond. Air Dwpt Max. Min. Relative Humidity Wind Chill (°F) Heat Index (°F) altimeter (in) sea level (mb) 1 hr 3 hr 6 hr
6 hour
Temperature (ºF) Pressure Precipitation (in)